Time;durP1;ratioP1;P1;durP2;ratioP2;P2;SDS_P1;SDS_P2;PMS_P1;PMS_P2;Temp;Humidity;BMP_temperature;BMP_pressure;BME280_temperature;BME280_humidity;BME280_pressure;Samples;Min_cycle;Max_cycle;Signal;HPM_P1;HPM_P2
2022/07/06 00:02:01;;;;;;;8.90;6.18;;;;;;;24.66;100.00;99993.78;5031588;28;20232;-71
2022/07/06 00:04:28;;;;;;;12.88;6.68;;;;;;;24.83;100.00;99985.09;5030755;28;20660;-72
2022/07/06 00:06:57;;;;;;;7.43;6.68;;;;;;;24.79;100.00;99980.84;5030446;28;20199;-71
2022/07/06 00:09:24;;;;;;;12.07;6.78;;;;;;;24.66;100.00;99977.88;5031319;28;20672;-72
2022/07/06 00:11:50;;;;;;;10.93;6.72;;;;;;;24.63;100.00;99976.22;5031239;28;20200;-72
2022/07/06 00:14:17;;;;;;;8.48;6.90;;;;;;;24.49;100.00;99973.31;5031338;28;20192;-71
2022/07/06 00:16:44;;;;;;;8.52;6.97;;;;;;;24.51;100.00;99983.84;5030686;28;20200;-71
2022/07/06 00:19:11;;;;;;;7.60;6.90;;;;;;;24.51;100.00;99971.44;5031031;28;20212;-72
2022/07/06 00:21:38;;;;;;;13.63;6.83;;;;;;;24.66;100.00;99985.81;5030666;28;20219;-72
2022/07/06 00:24:06;;;;;;;8.35;7.50;;;;;;;24.56;100.00;99984.50;5032622;28;20455;-72
2022/07/06 00:26:33;;;;;;;12.13;7.13;;;;;;;24.54;100.00;99986.38;5034759;28;20207;-72
2022/07/06 00:29:00;;;;;;;7.82;6.32;;;;;;;24.58;100.00;99982.63;5034908;28;20192;-72
2022/07/06 00:31:27;;;;;;;7.25;6.55;;;;;;;24.48;100.00;99989.28;5034458;28;20203;-72
2022/07/06 00:33:54;;;;;;;6.93;6.25;;;;;;;24.40;100.00;99984.28;5034842;28;20203;-72
2022/07/06 00:36:20;;;;;;;8.93;7.97;;;;;;;24.29;100.00;99991.88;4997469;28;20215;-72
2022/07/06 00:38:47;;;;;;;8.65;6.80;;;;;;;24.24;100.00;99974.44;5012151;28;20196;-72
2022/07/06 00:41:15;;;;;;;8.18;6.90;;;;;;;24.30;100.00;99960.91;5034797;28;20211;-72
2022/07/06 00:43:52;;;;;;;10.50;6.57;;;;;;;24.23;100.00;99964.75;5033897;28;20696;-72
2022/07/06 00:46:19;;;;;;;10.10;7.13;;;;;;;24.35;100.00;99974.84;5034343;28;20664;-72
2022/07/06 00:48:46;;;;;;;7.80;7.00;;;;;;;24.47;100.00;99980.44;5034275;28;20204;-71
2022/07/06 00:51:14;;;;;;;9.70;7.00;;;;;;;24.10;100.00;99965.25;5034278;28;20199;-72
2022/07/06 00:53:42;;;;;;;11.23;7.07;;;;;;;23.75;100.00;99888.19;5034571;28;20211;-73
2022/07/06 00:56:10;;;;;;;7.45;6.75;;;;;;;24.25;100.00;99957.59;5034557;28;20196;-71
2022/07/06 00:58:38;;;;;;;12.40;7.22;;;;;;;24.15;100.00;99950.03;5034212;28;20207;-71
2022/07/06 01:01:05;;;;;;;7.75;7.00;;;;;;;23.73;100.00;99861.75;4999098;28;20220;-71
2022/07/06 01:03:33;;;;;;;7.65;6.85;;;;;;;24.19;100.00;99927.78;5033712;28;20228;-71
2022/07/06 01:06:00;;;;;;;11.05;6.90;;;;;;;24.06;100.00;99915.97;5034070;28;20203;-71
2022/07/06 01:08:27;;;;;;;12.18;7.47;;;;;;;24.10;100.00;99922.84;5033726;28;20204;-72
2022/07/06 01:10:54;;;;;;;8.43;7.10;;;;;;;24.07;100.00;99933.59;5033991;28;20212;-72
2022/07/06 01:13:21;;;;;;;7.72;7.03;;;;;;;23.91;100.00;99923.69;5034154;28;20208;-72
2022/07/06 01:15:50;;;;;;;9.13;7.43;;;;;;;24.13;100.00;99937.78;5033764;28;20197;-72
2022/07/06 01:18:17;;;;;;;8.25;7.28;;;;;;;24.10;100.00;99932.59;5015001;28;20188;-72
2022/07/06 01:20:45;;;;;;;6.38;5.80;;;;;;;24.21;100.00;99940.97;5033198;28;20667;-72
2022/07/06 01:23:12;;;;;;;8.05;7.15;;;;;;;24.06;100.00;99936.28;5033306;28;20235;-73
2022/07/06 01:25:39;;;;;;;8.10;7.30;;;;;;;23.63;100.00;99863.09;5034258;28;20192;-73
2022/07/06 01:28:05;;;;;;;7.93;6.88;;;;;;;24.17;100.00;99929.66;4997143;28;20201;-74
2022/07/06 01:30:32;;;;;;;11.75;7.60;;;;;;;24.02;100.00;99916.16;5013977;28;20595;-73
2022/07/06 01:32:59;;;;;;;8.35;7.22;;;;;;;24.08;100.00;99919.41;5013816;28;20685;-72
2022/07/06 01:35:30;;;;;;;7.78;6.85;;;;;;;24.14;100.00;99923.63;5013272;28;20201;-73
2022/07/06 01:37:58;;;;;;;8.98;6.40;;;;;;;24.17;100.00;99905.81;5025644;28;20208;-72
2022/07/06 01:40:25;;;;;;;7.80;7.10;;;;;;;24.37;100.00;99926.13;5015129;28;20227;-72
2022/07/06 01:42:52;;;;;;;7.70;6.75;;;;;;;24.29;100.00;99911.50;5025807;28;20707;-72
2022/07/06 01:45:18;;;;;;;8.00;7.20;;;;;;;24.40;100.00;99949.84;4998702;28;20204;-71
2022/07/06 01:47:45;;;;;;;7.30;6.45;;;;;;;24.35;100.00;99941.25;4996992;28;20211;-72
2022/07/06 01:50:12;;;;;;;8.00;6.82;;;;;;;24.38;100.00;99932.28;5033694;28;20694;-72
2022/07/06 01:52:39;;;;;;;9.52;6.88;;;;;;;24.35;100.00;99946.53;5033439;28;20204;-72
2022/07/06 01:55:08;;;;;;;8.38;7.05;;;;;;;24.43;100.00;99931.19;5033715;28;20192;-72
2022/07/06 01:57:35;;;;;;;8.13;6.95;;;;;;;24.59;100.00;99949.91;5033120;28;20203;-72
2022/07/06 02:00:01;;;;;;;7.53;6.82;;;;;;;24.58;100.00;99941.06;5032526;28;20197;-72
2022/07/06 02:02:28;;;;;;;9.18;7.13;;;;;;;24.41;100.00;99948.06;5033040;28;20200;-72
2022/07/06 02:04:55;;;;;;;12.48;6.95;;;;;;;24.23;100.00;99943.53;5032867;28;20873;-72
2022/07/06 02:07:22;;;;;;;9.27;7.03;;;;;;;24.33;100.00;99955.50;5033551;28;20211;-72
2022/07/06 02:09:49;;;;;;;8.40;6.95;;;;;;;24.35;100.00;99959.78;5032877;28;20196;-72
2022/07/06 02:12:17;;;;;;;8.02;7.25;;;;;;;24.33;100.00;99955.50;5032921;28;20211;-72
2022/07/06 02:14:44;;;;;;;13.82;7.25;;;;;;;24.22;100.00;99958.59;5031911;28;20200;-72
2022/07/06 02:17:11;;;;;;;7.03;6.43;;;;;;;24.34;100.00;99963.38;5033041;28;20188;-72
2022/07/06 02:19:37;;;;;;;9.35;6.78;;;;;;;24.32;100.00;99943.16;5032588;28;20192;-72
2022/07/06 02:22:04;;;;;;;7.72;6.93;;;;;;;24.23;100.00;99944.41;5033043;28;20200;-72
2022/07/06 02:24:34;;;;;;;7.47;6.68;;;;;;;24.33;100.00;99939.59;5032928;28;20231;-73
2022/07/06 02:27:01;;;;;;;7.60;6.43;;;;;;;24.16;100.00;99933.22;5032478;28;20208;-72
2022/07/06 02:29:29;;;;;;;7.82;7.05;;;;;;;24.08;100.00;99932.66;5030935;28;20203;-72
2022/07/06 02:31:56;;;;;;;9.93;7.28;;;;;;;23.93;100.00;99920.06;5032595;28;20586;-72
2022/07/06 02:34:23;;;;;;;9.65;7.50;;;;;;;23.91;100.00;99915.75;5032675;28;20208;-72
2022/07/06 02:36:49;;;;;;;12.25;7.40;;;;;;;23.87;100.00;99920.31;5029840;28;20207;-73
2022/07/06 02:39:16;;;;;;;8.25;7.18;;;;;;;23.88;100.00;99916.75;5031596;28;20200;-71
2022/07/06 02:41:43;;;;;;;10.63;7.50;;;;;;;23.72;100.00;99915.66;5032083;28;20197;-73
2022/07/06 02:44:10;;;;;;;9.95;7.10;;;;;;;23.84;100.00;99917.78;5029476;28;20231;-73
2022/07/06 02:46:38;;;;;;;8.80;7.38;;;;;;;23.90;100.00;99903.44;5013151;28;20204;-72
2022/07/06 02:49:05;;;;;;;13.25;7.65;;;;;;;23.80;100.00;99897.66;5031908;28;20197;-72
2022/07/06 02:51:32;;;;;;;8.63;7.28;;;;;;;23.81;100.00;99909.97;5012669;28;20572;-72
2022/07/06 02:53:58;;;;;;;8.20;7.38;;;;;;;23.82;100.00;99905.53;5032203;28;20207;-73
2022/07/06 02:56:25;;;;;;;8.25;7.28;;;;;;;23.61;100.00;99883.47;5032061;28;20204;-73
2022/07/06 02:58:52;;;;;;;8.15;7.30;;;;;;;23.82;100.00;99909.06;4981497;28;20200;-73
2022/07/06 03:01:19;;;;;;;12.95;7.55;;;;;;;23.83;100.00;99907.28;5024499;28;20232;-72
2022/07/06 03:03:47;;;;;;;8.13;7.22;;;;;;;23.91;100.00;99906.00;5031761;28;20234;-73
2022/07/06 03:06:14;;;;;;;8.55;7.65;;;;;;;23.64;100.00;99904.53;5031363;28;20199;-72
2022/07/06 03:08:41;;;;;;;8.55;7.07;;;;;;;23.40;100.00;99839.34;5031557;28;20200;-73
2022/07/06 03:11:08;;;;;;;8.30;7.32;;;;;;;23.67;100.00;99907.91;5031951;28;20287;-73
2022/07/06 03:13:35;;;;;;;9.30;7.82;;;;;;;23.61;100.00;99907.31;4993070;28;20292;-73
2022/07/06 03:16:02;;;;;;;10.45;8.10;;;;;;;23.74;100.00;99913.81;5018844;28;20196;-73
2022/07/06 03:18:29;;;;;;;8.30;7.53;;;;;;;23.91;100.00;99916.59;4996514;28;20246;-74
2022/07/06 03:20:57;;;;;;;8.50;7.32;;;;;;;24.20;100.00;99928.66;5031869;28;20208;-73
2022/07/06 03:23:24;;;;;;;9.70;7.55;;;;;;;24.47;100.00;99929.25;5031570;28;20228;-73
2022/07/06 03:25:51;;;;;;;8.73;7.25;;;;;;;24.87;100.00;99938.94;5031182;28;20200;-74
2022/07/06 03:28:18;;;;;;;13.00;7.80;;;;;;;24.67;100.00;99938.03;5031310;28;20853;-73
2022/07/06 03:30:45;;;;;;;9.05;7.22;;;;;;;24.91;100.00;99929.91;5030581;28;20207;-72
2022/07/06 03:33:12;;;;;;;8.93;7.18;;;;;;;25.35;100.00;99944.63;5029914;28;20209;-73
2022/07/06 03:35:38;;;;;;;9.02;7.50;;;;;;;25.28;100.00;99937.03;5030611;28;20200;-74
2022/07/06 03:38:07;;;;;;;9.60;7.28;;;;;;;25.07;100.00;99934.44;5030043;28;20204;-72
2022/07/06 03:40:34;;;;;;;11.60;7.45;;;;;;;25.26;100.00;99925.59;5030627;28;20208;-73
2022/07/06 03:43:01;;;;;;;10.05;7.53;;;;;;;25.03;100.00;99937.31;5031642;28;20208;-73
2022/07/06 03:45:28;;;;;;;8.48;7.20;;;;;;;25.71;100.00;99939.38;5031057;28;20192;-73
2022/07/06 03:47:55;;;;;;;8.13;6.90;;;;;;;26.45;100.00;99942.69;4996450;28;20200;-72
2022/07/06 03:50:21;;;;;;;7.13;6.43;;;;;;;26.86;100.00;99951.19;5029501;28;20208;-73
2022/07/06 03:52:48;;;;;;;7.45;6.75;;;;;;;26.63;100.00;99947.91;5031315;28;20192;-72
2022/07/06 03:55:17;;;;;;;8.23;6.45;;;;;;;27.18;100.00;99949.44;4982396;28;20201;-72
2022/07/06 03:57:43;;;;;;;7.65;6.95;;;;;;;27.00;100.00;99949.47;5011227;28;20677;-73
2022/07/06 04:00:11;;;;;;;10.10;6.68;;;;;;;27.03;100.00;99882.78;4999391;28;20227;-73
2022/07/06 04:02:38;;;;;;;10.98;6.40;;;;;;;26.84;100.00;99932.63;5030896;28;20207;-73
2022/07/06 04:05:06;;;;;;;9.43;6.75;;;;;;;27.02;100.00;99946.72;5030912;28;20583;-74
2022/07/06 04:07:33;;;;;;;8.52;6.68;;;;;;;26.78;100.00;99954.22;5031186;28;20208;-73
2022/07/06 04:09:59;;;;;;;14.65;6.13;;;;;;;27.18;100.00;99957.41;5031157;28;20210;-73
2022/07/06 04:12:28;;;;;;;8.60;6.45;;;;;;;27.09;100.00;99964.94;5030638;28;20204;-72
2022/07/06 04:14:57;;;;;;;6.03;5.53;;;;;;;27.60;100.00;99971.03;5030678;28;20226;-73
2022/07/06 04:20:09;;;;;;;9.15;6.10;;;;;;;28.21;100.00;99971.03;5030692;28;20198;-73
2022/07/06 04:22:38;;;;;;;6.95;6.25;;;;;;;27.07;100.00;99972.19;5030752;28;20214;-71
2022/07/06 04:25:06;;;;;;;8.43;6.50;;;;;;;27.23;100.00;99918.06;5030414;28;20219;-71
2022/07/06 04:27:34;;;;;;;6.80;6.20;;;;;;;27.81;100.00;99977.78;5030598;28;20599;-71
2022/07/06 04:30:01;;;;;;;6.53;5.93;;;;;;;28.24;100.00;99981.50;5030513;28;20206;-69
2022/07/06 04:32:29;;;;;;;6.93;6.22;;;;;;;27.83;100.00;99996.34;5030567;28;20203;-71
2022/07/06 04:34:55;;;;;;;6.88;6.20;;;;;;;28.33;100.00;99967.63;5031488;28;20200;-71
2022/07/06 04:37:22;;;;;;;8.02;6.30;;;;;;;28.71;100.00;99986.69;5029262;28;20210;-70
2022/07/06 04:39:49;;;;;;;8.70;6.40;;;;;;;27.86;100.00;99978.38;5029880;28;20203;-73
2022/07/06 04:42:16;;;;;;;6.93;6.25;;;;;;;27.90;100.00;99960.41;5030916;28;20204;-72
2022/07/06 04:44:45;;;;;;;9.05;5.95;;;;;;;28.76;100.00;99987.25;5030499;28;20231;-72
2022/07/06 04:47:12;;;;;;;6.63;5.95;;;;;;;28.49;100.00;99972.91;5012405;28;20204;-72
2022/07/06 04:49:39;;;;;;;5.57;5.07;;;;;;;28.82;100.00;99989.56;5018204;28;20636;-73
2022/07/06 04:52:06;;;;;;;6.97;5.70;;;;;;;28.94;100.00;99988.78;5030261;28;20212;-73
2022/07/06 04:54:33;;;;;;;5.80;5.18;;;;;;;28.93;98.10;99989.75;5023888;28;20212;-72
2022/07/06 04:57:00;;;;;;;6.65;5.82;;;;;;;29.13;98.96;99982.31;5030548;28;20195;-71
2022/07/06 04:59:26;;;;;;;6.93;5.60;;;;;;;29.25;94.15;99960.19;5030152;28;20207;-72
2022/07/06 05:01:55;;;;;;;7.55;5.78;;;;;;;29.64;93.04;99979.03;5028017;28;20242;-72
2022/07/06 05:04:24;;;;;;;8.38;6.13;;;;;;;29.53;89.59;99985.06;5018717;28;20239;-73
2022/07/06 05:06:51;;;;;;;6.18;5.55;;;;;;;29.25;93.57;99984.22;5018170;28;20211;-72
2022/07/06 05:09:18;;;;;;;8.05;5.75;;;;;;;30.05;88.32;99988.81;5018466;28;20200;-73
2022/07/06 05:11:45;;;;;;;6.05;5.38;;;;;;;29.73;89.65;99982.88;5017470;28;20204;-72
2022/07/06 05:14:11;;;;;;;7.03;5.80;;;;;;;29.52;91.03;99988.69;5022528;28;20227;-71
2022/07/06 05:16:38;;;;;;;8.98;6.07;;;;;;;29.68;88.20;99985.84;5030549;28;20218;-70
2022/07/06 05:19:06;;;;;;;6.15;5.57;;;;;;;29.14;95.07;99990.25;5027403;28;20885;-71
2022/07/06 05:21:33;;;;;;;7.55;5.90;;;;;;;29.35;94.14;99982.72;5033912;28;20191;-72
2022/07/06 05:24:00;;;;;;;6.18;5.32;;;;;;;29.15;97.11;99975.03;5031100;28;20227;-73
2022/07/06 05:26:27;;;;;;;6.38;5.78;;;;;;;29.04;96.66;99989.94;5023476;28;20212;-72
2022/07/06 05:28:54;;;;;;;7.93;7.07;;;;;;;28.91;99.46;99997.00;5005664;28;20211;-72
2022/07/06 05:31:20;;;;;;;8.35;7.13;;;;;;;28.85;98.91;99999.19;5017214;28;20292;-72
2022/07/06 05:33:47;;;;;;;8.90;7.07;;;;;;;28.76;100.00;99992.59;5014653;28;20695;-72
2022/07/06 05:36:16;;;;;;;14.63;6.72;;;;;;;28.83;100.00;99983.25;5019837;28;20210;-72
2022/07/06 05:38:43;;;;;;;9.50;6.68;;;;;;;27.96;100.00;99990.25;5019749;28;20200;-73
2022/07/06 05:41:10;;;;;;;7.13;6.00;;;;;;;28.29;100.00;99976.75;5025691;28;20211;-72
2022/07/06 05:43:37;;;;;;;8.02;6.30;;;;;;;28.66;100.00;99987.88;5006163;28;20226;-71
2022/07/06 05:46:03;;;;;;;7.78;6.57;;;;;;;28.84;100.00;99995.66;5022089;28;20263;-71
2022/07/06 05:51:16;;;;;;;7.90;6.63;;;;;;;28.16;100.00;99974.91;5021446;28;20211;-72
2022/07/06 05:53:43;;;;;;;11.63;6.43;;;;;;;28.87;100.00;99999.94;5013735;28;20208;-71
2022/07/06 05:56:10;;;;;;;7.15;6.50;;;;;;;28.49;100.00;99931.06;5023527;28;20211;-72
2022/07/06 05:58:37;;;;;;;6.93;6.32;;;;;;;28.94;100.00;100002.16;5033076;28;20203;-72
2022/07/06 06:01:03;;;;;;;7.43;5.70;;;;;;;29.35;100.00;100004.09;5033176;28;20235;-71
2022/07/06 06:03:30;;;;;;;7.03;6.30;;;;;;;29.22;98.78;100005.75;5029984;28;20219;-72
2022/07/06 06:05:57;;;;;;;7.68;5.85;;;;;;;28.73;100.00;99992.78;5027157;28;20200;-73
2022/07/06 06:08:25;;;;;;;6.80;6.10;;;;;;;29.23;97.47;100002.13;5015539;28;20212;-70
2022/07/06 06:10:52;;;;;;;6.57;5.93;;;;;;;28.84;100.00;100001.00;5023512;28;20216;-72
2022/07/06 06:13:19;;;;;;;6.75;5.93;;;;;;;28.93;98.30;99995.09;5032341;28;20207;-72
2022/07/06 06:15:46;;;;;;;10.05;6.13;;;;;;;28.69;100.00;99980.59;5017514;28;20212;-72
2022/07/06 06:18:16;;;;;;;6.07;5.47;;;;;;;29.07;97.58;99991.56;5021073;28;20204;-71
2022/07/06 06:20:43;;;;;;;7.57;6.20;;;;;;;29.54;92.63;100001.94;5021741;28;20200;-72
2022/07/06 06:23:10;;;;;;;6.10;5.25;;;;;;;29.49;93.95;99990.69;5015525;28;20222;-71
2022/07/06 06:25:40;;;;;;;6.35;5.53;;;;;;;29.78;91.68;100013.72;5014715;28;20299;-74
2022/07/06 06:28:08;;;;;;;5.57;4.78;;;;;;;29.59;86.68;100002.50;5016490;28;20231;-73
2022/07/06 06:30:36;;;;;;;6.03;4.47;;;;;;;29.18;89.18;99989.06;5016150;28;20208;-72
2022/07/06 06:33:07;;;;;;;5.10;4.35;;;;;;;29.47;87.93;99984.56;5014662;28;20603;-72
2022/07/06 06:35:34;;;;;;;4.10;3.80;;;;;;;29.44;85.25;100008.81;5007458;28;20262;-72
2022/07/06 06:38:01;;;;;;;4.97;4.57;;;;;;;28.92;89.64;100019.22;5021409;28;20195;-72
2022/07/06 06:40:28;;;;;;;4.82;4.35;;;;;;;28.49;94.87;100016.47;5015481;28;20211;-71
2022/07/06 06:42:56;;;;;;;4.82;4.35;;;;;;;28.19;96.10;100017.38;5021146;28;20215;-72
2022/07/06 06:45:23;;;;;;;4.70;4.38;;;;;;;27.95;98.74;100020.50;5011963;28;20228;-72
2022/07/06 06:47:50;;;;;;;5.60;5.10;;;;;;;27.80;100.00;100013.38;5003049;28;20204;-72
2022/07/06 06:50:17;;;;;;;6.13;5.65;;;;;;;27.73;100.00;100008.47;5016642;28;20193;-72
2022/07/06 06:52:44;;;;;;;7.68;5.25;;;;;;;27.88;100.00;100008.47;4997449;28;20196;-73
2022/07/06 06:55:11;;;;;;;6.72;6.10;;;;;;;27.55;100.00;100015.69;5028566;28;20204;-72
2022/07/06 06:57:38;;;;;;;7.47;6.45;;;;;;;27.74;100.00;99995.06;5030462;28;20216;-71
2022/07/06 07:00:07;;;;;;;6.57;5.97;;;;;;;28.47;100.00;100012.13;5031104;28;20252;-72
2022/07/06 07:02:34;;;;;;;6.03;5.43;;;;;;;27.91;100.00;100018.97;5027738;28;20237;-71
2022/07/06 07:05:01;;;;;;;8.57;6.03;;;;;;;28.18;100.00;100010.34;5026512;28;20227;-71
2022/07/06 07:07:28;;;;;;;7.70;6.88;;;;;;;28.14;100.00;100020.34;5027287;28;20230;-71
2022/07/06 07:09:55;;;;;;;7.60;6.65;;;;;;;28.03;100.00;100012.06;5024684;28;20208;-72
2022/07/06 07:12:21;;;;;;;13.15;7.55;;;;;;;28.42;100.00;100019.56;5022745;28;20216;-72
2022/07/06 07:14:48;;;;;;;8.93;6.97;;;;;;;28.68;100.00;100026.88;5013131;28;20200;-72
2022/07/06 07:17:17;;;;;;;10.68;7.70;;;;;;;28.74;100.00;100023.88;5027714;28;20204;-72
2022/07/06 07:19:44;;;;;;;7.30;6.60;;;;;;;28.35;100.00;100018.22;5019616;28;20236;-72
2022/07/06 07:22:10;;;;;;;8.05;7.35;;;;;;;28.30;100.00;100022.94;5025639;28;20199;-71
2022/07/06 07:24:37;;;;;;;9.70;6.28;;;;;;;28.10;100.00;100028.59;5029967;28;20236;-71
2022/07/06 07:27:05;;;;;;;13.00;8.32;;;;;;;27.88;100.00;100024.47;5020799;28;20208;-72
2022/07/06 07:29:31;;;;;;;11.68;7.07;;;;;;;27.81;100.00;100006.25;5029795;28;20196;-72
2022/07/06 07:31:58;;;;;;;12.60;7.93;;;;;;;28.04;100.00;100038.63;5027919;28;20203;-71
2022/07/06 07:34:26;;;;;;;9.75;8.18;;;;;;;28.22;100.00;100039.41;5019355;28;20210;-72
2022/07/06 07:36:53;;;;;;;10.32;7.80;;;;;;;28.26;100.00;100034.75;5011487;28;20679;-72
2022/07/06 07:39:20;;;;;;;10.98;8.15;;;;;;;28.26;100.00;100026.75;5014285;28;20204;-71
2022/07/06 07:41:50;;;;;;;11.18;8.32;;;;;;;27.59;100.00;100027.91;5029633;28;20208;-71
2022/07/06 07:44:16;;;;;;;7.80;7.15;;;;;;;28.18;100.00;100032.56;5017545;28;20275;-71
2022/07/06 07:46:44;;;;;;;19.42;8.02;;;;;;;27.77;100.00;99981.56;5024959;28;20578;-73
2022/07/06 07:49:10;;;;;;;10.73;7.38;;;;;;;27.71;100.00;100015.72;5027868;28;20215;-72
2022/07/06 07:51:39;;;;;;;11.73;8.13;;;;;;;28.03;100.00;100033.41;4984337;28;20226;-71
2022/07/06 07:54:06;;;;;;;8.98;8.05;;;;;;;28.32;100.00;100029.06;5012122;28;20258;-74
2022/07/06 07:56:33;;;;;;;9.05;8.10;;;;;;;27.98;100.00;100025.66;5030886;28;20207;-73
2022/07/06 07:58:59;;;;;;;8.38;7.57;;;;;;;27.93;100.00;100017.06;5030583;28;20624;-72
2022/07/06 08:01:26;;;;;;;11.13;8.27;;;;;;;27.95;100.00;100036.50;5030753;28;20240;-73
2022/07/06 08:03:54;;;;;;;7.93;6.78;;;;;;;27.58;100.00;100004.88;5030862;28;20196;-71
2022/07/06 08:06:21;;;;;;;10.88;8.45;;;;;;;28.04;100.00;100011.97;5030769;28;20234;-72
2022/07/06 08:08:49;;;;;;;7.93;7.13;;;;;;;28.21;100.00;100012.84;5030535;28;20562;-72
2022/07/06 08:11:16;;;;;;;9.18;7.85;;;;;;;27.63;100.00;100028.59;5030655;28;20195;-72
2022/07/06 08:13:43;;;;;;;9.50;7.72;;;;;;;27.32;100.00;100029.41;5030623;28;20207;-71
2022/07/06 08:16:10;;;;;;;9.02;7.03;;;;;;;27.71;100.00;100037.03;5030473;28;20287;-72
2022/07/06 08:18:37;;;;;;;9.23;6.75;;;;;;;27.29;100.00;100008.28;5030485;28;20223;-72
2022/07/06 08:21:05;;;;;;;8.90;6.40;;;;;;;27.73;100.00;100033.31;5031071;28;20560;-72
2022/07/06 08:23:34;;;;;;;6.13;5.00;;;;;;;27.47;100.00;99989.47;5030173;28;20196;-73
2022/07/06 08:26:02;;;;;;;6.38;5.85;;;;;;;27.69;100.00;100021.13;5030674;28;20315;-73
2022/07/06 08:28:29;;;;;;;12.38;6.43;;;;;;;27.78;100.00;100028.59;5030380;28;20205;-73
2022/07/06 08:30:56;;;;;;;8.73;5.65;;;;;;;28.16;98.89;100031.75;5030444;28;20203;-73
2022/07/06 08:33:23;;;;;;;6.63;6.10;;;;;;;27.64;99.69;100028.53;5030373;28;20589;-72
2022/07/06 08:35:50;;;;;;;9.95;6.68;;;;;;;27.73;100.00;100036.00;5011948;28;20204;-74
2022/07/06 08:38:17;;;;;;;9.02;6.85;;;;;;;27.16;100.00;100033.81;5030414;28;20672;-74
2022/07/06 08:40:47;;;;;;;11.98;6.78;;;;;;;26.87;100.00;100032.72;5030288;28;20208;-74
2022/07/06 08:43:16;;;;;;;7.25;6.55;;;;;;;27.60;100.00;100024.31;5028459;28;20203;-74
2022/07/06 08:45:44;;;;;;;7.57;6.55;;;;;;;27.38;100.00;100040.59;5024106;28;20224;-73
2022/07/06 08:48:12;;;;;;;7.22;6.60;;;;;;;27.68;100.00;100030.06;5033874;28;20205;-73
2022/07/06 08:50:39;;;;;;;9.43;7.70;;;;;;;27.37;100.00;100019.34;5028147;28;20679;-73
2022/07/06 08:53:07;;;;;;;10.07;7.60;;;;;;;27.94;100.00;100056.09;5023165;28;20227;-74
2022/07/06 08:55:34;;;;;;;8.02;6.93;;;;;;;27.56;100.00;100049.41;5029978;28;20594;-73
2022/07/06 08:58:01;;;;;;;9.02;8.13;;;;;;;27.15;100.00;100053.44;5022928;28;20201;-74
2022/07/06 09:00:29;;;;;;;10.07;7.65;;;;;;;27.32;100.00;100064.88;5021230;28;20231;-74
2022/07/06 09:02:57;;;;;;;8.63;7.78;;;;;;;27.10;100.00;100061.66;5023158;28;20212;-74
2022/07/06 09:05:25;;;;;;;7.57;6.78;;;;;;;27.03;100.00;100053.13;5027502;28;20220;-74
2022/07/06 09:07:53;;;;;;;8.70;7.78;;;;;;;27.28;100.00;100054.47;5018902;28;20209;-72
2022/07/06 09:10:22;;;;;;;8.27;7.47;;;;;;;27.23;100.00;100051.19;5027890;28;20200;-73
2022/07/06 09:12:49;;;;;;;7.10;6.40;;;;;;;27.03;100.00;100045.16;5025754;28;20203;-75
2022/07/06 09:15:17;;;;;;;8.10;7.05;;;;;;;27.19;100.00;100023.88;5025463;28;20200;-74
2022/07/06 09:17:45;;;;;;;7.72;7.00;;;;;;;27.08;100.00;100048.41;5017115;28;20299;-74
2022/07/06 09:20:14;;;;;;;8.90;7.78;;;;;;;27.20;100.00;100051.38;5031742;28;20254;-75
2022/07/06 09:22:41;;;;;;;8.88;6.97;;;;;;;27.56;100.00;100054.72;5033490;28;20196;-72
2022/07/06 09:25:10;;;;;;;8.00;7.20;;;;;;;27.28;100.00;100043.81;5033410;28;20238;-72
2022/07/06 09:27:41;;;;;;;8.60;7.35;;;;;;;27.89;100.00;100060.84;5033194;28;20204;-72
2022/07/06 09:30:09;;;;;;;7.53;6.85;;;;;;;28.47;98.42;100070.84;4996451;28;20209;-71
2022/07/06 09:32:40;;;;;;;7.85;6.43;;;;;;;28.47;95.77;100065.50;5033356;28;20203;-71
2022/07/06 09:35:09;;;;;;;7.22;6.57;;;;;;;28.39;96.43;100051.78;5033697;28;20208;-73
2022/07/06 09:37:36;;;;;;;7.82;7.03;;;;;;;28.78;93.39;100069.94;5019474;28;20192;-73
2022/07/06 09:40:17;;;;;;;8.00;6.18;;;;;;;29.30;88.20;100072.97;5023112;28;20296;-72
2022/07/06 09:42:44;;;;;;;6.13;5.63;;;;;;;29.20;87.77;100061.97;5032749;28;20200;-72
2022/07/06 09:45:11;;;;;;;6.00;5.50;;;;;;;29.05;86.97;100050.41;5033511;28;20228;-72
2022/07/06 09:47:39;;;;;;;6.88;6.20;;;;;;;29.51;89.59;100064.47;5008763;28;20230;-73
2022/07/06 09:50:07;;;;;;;5.70;5.28;;;;;;;29.49;88.20;100065.53;5033368;28;20279;-73
2022/07/06 09:52:36;;;;;;;6.35;5.47;;;;;;;29.13;86.36;100047.28;5026688;28;20216;-73
2022/07/06 09:55:16;;;;;;;7.18;5.68;;;;;;;29.39;86.49;100061.72;5019940;28;20212;-74
2022/07/06 09:57:54;;;;;;;5.43;4.93;;;;;;;29.25;86.44;100057.19;5015843;28;20292;-73
2022/07/06 10:00:22;;;;;;;6.85;4.70;;;;;;;28.71;87.26;100058.75;5011719;28;21022;-72
2022/07/06 10:02:50;;;;;;;5.68;5.13;;;;;;;29.08;89.64;100052.03;5017913;28;20204;-72
2022/07/06 10:05:18;;;;;;;5.97;4.78;;;;;;;28.69;87.53;100035.75;5019426;28;20232;-73
2022/07/06 10:07:47;;;;;;;8.50;6.05;;;;;;;28.61;90.80;100033.53;5030244;28;20210;-73
2022/07/06 10:10:16;;;;;;;6.90;5.45;;;;;;;29.22;87.13;100049.34;5031811;28;20191;-73
2022/07/06 10:12:45;;;;;;;6.18;5.60;;;;;;;29.14;88.21;100046.31;5031984;28;20212;-73
2022/07/06 10:15:12;;;;;;;6.10;5.57;;;;;;;28.98;86.44;100057.09;5031857;28;20226;-72
2022/07/06 10:17:41;;;;;;;6.05;5.55;;;;;;;29.17;86.55;100045.28;5032157;28;20201;-72
2022/07/06 10:20:09;;;;;;;6.43;5.43;;;;;;;29.08;86.05;100056.50;5032120;28;20204;-74
2022/07/06 10:22:36;;;;;;;6.65;5.57;;;;;;;28.67;88.27;100051.88;4997552;28;20192;-73
2022/07/06 10:25:06;;;;;;;8.45;5.60;;;;;;;28.00;90.79;99969.59;5031572;28;20275;-72
2022/07/06 10:27:34;;;;;;;9.15;5.80;;;;;;;29.02;88.56;100044.41;5029800;28;20672;-73
2022/07/06 10:30:01;;;;;;;6.38;5.78;;;;;;;29.43;86.11;100053.38;5031906;28;20203;-73
2022/07/06 10:32:29;;;;;;;11.35;6.40;;;;;;;28.66;91.91;100050.13;5032004;28;20200;-73
2022/07/06 10:34:56;;;;;;;7.32;6.53;;;;;;;28.91;88.40;100050.41;5032032;28;20687;-73
2022/07/06 10:37:25;;;;;;;7.90;5.65;;;;;;;28.96;91.67;100042.13;5032264;28;20203;-74
2022/07/06 10:42:42;;;;;;;6.40;5.75;;;;;;;29.20;89.63;100043.25;5030036;28;20207;-73
2022/07/06 10:45:13;;;;;;;7.18;5.68;;;;;;;28.90;90.65;100040.66;5031652;28;20203;-73
2022/07/06 10:47:41;;;;;;;6.93;5.97;;;;;;;28.83;92.47;100041.13;4998175;28;20230;-74
2022/07/06 10:50:08;;;;;;;9.10;6.05;;;;;;;28.73;92.24;100010.63;5031381;28;20318;-73
2022/07/06 10:52:51;;;;;;;8.23;5.80;;;;;;;28.81;93.94;100005.69;5031830;28;20561;-72
2022/07/06 10:55:38;;;;;;;7.00;6.07;;;;;;;28.54;94.86;100019.69;5029978;28;21269;-73
2022/07/06 10:58:07;;;;;;;7.97;7.03;;;;;;;28.36;98.01;100017.28;5029420;28;20196;-73
2022/07/06 11:00:53;;;;;;;7.35;6.05;;;;;;;28.50;96.63;100018.16;5029464;28;20238;-73
2022/07/06 11:03:36;;;;;;;7.50;6.50;;;;;;;27.82;100.00;99997.31;5029963;28;20604;-73
2022/07/06 11:06:08;;;;;;;7.07;6.47;;;;;;;27.66;100.00;100007.09;5030602;28;20217;-72
2022/07/06 11:08:46;;;;;;;7.78;6.88;;;;;;;27.52;100.00;100005.22;5031107;28;20211;-71
2022/07/06 11:11:16;;;;;;;7.32;6.72;;;;;;;27.57;100.00;99987.19;5031623;28;20645;-73
2022/07/06 11:13:48;;;;;;;8.52;6.88;;;;;;;27.74;100.00;99983.56;4997710;28;20586;-72
2022/07/06 11:16:16;;;;;;;7.97;6.97;;;;;;;28.01;100.00;100009.47;5031739;28;20211;-72
2022/07/06 11:18:47;;;;;;;7.82;6.53;;;;;;;27.86;100.00;100002.34;5031934;28;20269;-72
2022/07/06 11:21:19;;;;;;;9.65;7.22;;;;;;;28.05;100.00;100003.03;5031625;28;20204;-71
2022/07/06 11:23:48;;;;;;;8.18;6.70;;;;;;;27.70;100.00;99995.34;5031806;28;20200;-72
2022/07/06 11:26:15;;;;;;;8.98;6.93;;;;;;;27.91;100.00;99986.97;5031299;28;20642;-72
2022/07/06 11:28:46;;;;;;;7.22;6.47;;;;;;;28.22;97.91;100006.56;5031889;28;20200;-73
2022/07/06 11:31:13;;;;;;;7.70;6.90;;;;;;;28.12;98.30;100000.91;5031224;28;20672;-73
2022/07/06 11:33:40;;;;;;;6.93;6.30;;;;;;;28.17;98.04;99998.81;5031746;28;20196;-73